Mateo Arias

Scout - Santa Fe
5 Dez 2027
Sonntag
Verarbeitung

Persönlichkeit

Anpassungsfähigkeit (16) Ehrgeiz (14) Kontroverse (4) Loyalität (16) Druck (5) Professionalität (15) Fairness (14) Temperament (17)

Profil

Trainerstil Demokratisch
Lizenz Kontinentale Pro
Entschlossenheit 4
Menschenführung 5
Motivation 6
Disziplin 11
Arbeitszufriedenheit
90%
Ermüdung
0%
Rolle Scout
Gehalt 26.2K p/W
Vertrag 14.03.2028

Leistung

Verhalten Gut
Trainingseffektivität
32%
Spielerentwicklung
20%
Verletzungsprävention
25%
Taktische Umsetzung
35%

Letzte Ereignisse

Nahm an einer Scouting-Besprechung teil 7T her
Nahm an einer Scouting-Besprechung teil 7T her
Nahm an einer Scouting-Besprechung teil 14T her
Nahm an einer Scouting-Besprechung teil 14T her
Nahm an einer Scouting-Besprechung teil 21T her
Nahm an einer Scouting-Besprechung teil 21T her
Nahm an einer Scouting-Besprechung teil 28T her
Nahm an einer Scouting-Besprechung teil 28T her

Aktuell beobachtet

90
Spieler Verein Status Fähigkeit Vertrauen Beobachtet Zuletzt beobachtet Letzte Stimme
Juan Camilo Castillo Fortaleza CEIF Aktiv 98 / 108 51% 1 01.12.2027 -
Wassim Bouziane AZ Aktiv 131 / 139 40% 1 31.05.2027 -
Tariq Lamptey Queens Park Rangers Aktiv 135 / 133 40% 1 30.05.2027 -
Brooke Norton-Cuffy Hull City Aktiv 151 / 129 40% 1 30.05.2027 Mehr Infos nötig
Jonathan De Irastorza Levante Aktiv 127 / 120 40% 2 29.05.2027 -
Rhys Chadwick Burton Albion Aktiv 105 / 101 40% 3 28.05.2027 -
Oumar Camara Vitoria Guimaraes Aktiv 110 / 136 40% 3 28.05.2027 -
Edison Gruezo Queretaro Aktiv 97 / 107 40% 2 27.05.2027 -
Alphadjo Cissé Palermo Aktiv 134 / 123 40% 2 27.05.2027 -
Caleb Yirenkyi Coventry City Aktiv 143 / 139 40% 5 24.05.2027 -
Imrân Louza Watford Aktiv 138 / 134 40% 1 24.05.2027 -
Callum Brittain Middlesbrough Aktiv 139 / 136 40% 1 24.05.2027 -
Sindre Walle Egeli Ipswich Town Aktiv 136 / 130 40% 1 24.05.2027 -
Othmane Maamma Watford Aktiv 118 / 130 40% 1 22.05.2027 -
Mattia Rutigliano Pro Vercelli Aktiv 108 / 112 40% 1 22.05.2027 -
João Fonseca Benfica Aktiv 107 / 105 40% 1 18.05.2027 -
Oscar Schwartau Norwich City Aktiv 114 / 120 40% 1 17.05.2027 -
Riley Owen Peterborough United Aktiv 99 / 113 40% 1 17.05.2027 -
Ferdi Kadıoğlu Stoke City Aktiv 160 / 145 40% 1 16.05.2027 -
Rob Atkinson Bristol City Aktiv 128 / 129 40% 1 16.05.2027 -
Christos Mouzakitis Hull City Aktiv 120 / 139 40% 3 15.05.2027 -
Lennon Miller AC Milan Aktiv 132 / 145 40% 3 12.05.2027 -
Dani Díaz Real Sociedad Aktiv 109 / 111 40% 1 12.05.2027 -
Jack Currie Oxford United Aktiv 115 / 114 40% 1 11.05.2027 -
Ethan Ampadu Leeds United Aktiv 141 / 153 40% 1 11.05.2027 -
Alejandro Almaraz Eibar Aktiv 115 / 119 40% 1 10.05.2027 -
Archie Brown Fenerbahce Aktiv 144 / 142 40% 1 10.05.2027 -
Di'Shon Bernard Sheffield Wednesday Aktiv 117 / 126 40% 1 10.05.2027 -
Jayden Addai Como Aktiv 123 / 144 40% 3 06.05.2027 -
Jesús Rodríguez Como Aktiv 133 / 142 40% 2 06.05.2027 -
Marc Bola Watford Aktiv 113 / 116 40% 1 06.05.2027 -
Habib Diarra Sunderland Aktiv 130 / 150 40% 1 06.05.2027 -
Tim Iroegbunam Hull City Aktiv 145 / 131 40% 1 04.05.2027 -
Gustavo Hamer Sheffield United Aktiv 139 / 133 40% 1 04.05.2027 -
Agustín Medina Athletic Bilbao Aktiv 123 / 135 40% 3 03.05.2027 -
Jan Salas Huesca Aktiv 102 / 106 40% 3 03.05.2027 -
Kristoffer Lund Birmingham Aktiv 121 / 121 40% 1 02.05.2027 -
Sidiki Chérif Coventry City Aktiv 121 / 130 40% 1 30.04.2027 -
Kamarni Ryan Harrogate Town Aktiv 83 / 89 40% 1 28.04.2027 -
Yehor Yarmoliuk Brentford Aktiv 148 / 157 40% 1 28.04.2027 -
André Miranda Porto Aktiv 110 / 119 40% 1 26.04.2027 -
Ronwen Vilakazi Ajax Cape Town Aktiv 101 / 99 40% 1 25.04.2027 -
Eoin Toal Bolton Wanderers Aktiv 119 / 116 40% 1 24.04.2027 -
George Paaku Hearts of Oak Aktiv 102 / 77 40% 1 23.04.2027 -
Jhon Renteria Sarmiento Aktiv 116 / 115 40% 1 22.04.2027 -
Christ Inao Oulaï Fiorentina Aktiv 139 / 144 40% 1 22.04.2027 -
Daniel Awuni Aduana Stars Aktiv 90 / 108 40% 2 21.04.2027 -
Edoardo Bove Watford Aktiv 124 / 134 40% 1 19.04.2027 -
Sebastián Osorio Sporting CP Aktiv 94 / 95 40% 2 18.04.2027 -
Mathys Tel Tottenham Aktiv 143 / 150 40% 2 18.04.2027 -
Japhet Tanganga Sheffield United Aktiv 143 / 134 40% 1 18.04.2027 -
Toti Wolverhampton Aktiv 129 / 135 40% 1 18.04.2027 -
Ruan Alanyaspor Aktiv 131 / 115 40% 1 17.04.2027 -
Noah Sadiki Sunderland Aktiv 156 / 144 40% 1 16.04.2027 -
Ethan Pye Stockport County Aktiv 115 / 118 40% 1 16.04.2027 -
Shea Lacey Hull City Aktiv 111 / 127 40% 1 13.04.2027 -
Diogo Guzmán Deportivo La Coruña Aktiv 109 / 111 40% 2 12.04.2027 -
Dara O'Shea Ipswich Town Aktiv 129 / 133 40% 1 12.04.2027 -
Igor Burnley Aktiv 152 / 153 40% 1 08.04.2027 -
Atsuki Ito Bolton Wanderers Aktiv 134 / 118 40% 1 08.04.2027 -
Exequiel Palacios Ipswich Town Aktiv 155 / 165 40% 1 06.04.2027 -
Anton Stach Leeds United Aktiv 138 / 151 40% 1 06.04.2027 -
Lisandro Piñero Celta Aktiv 121 / 121 40% 1 05.04.2027 -
Kauã Elias Club Brugge Aktiv 130 / 126 40% 1 05.04.2027 -
Halam Loboa Osasuna Aktiv 109 / 122 40% 4 04.04.2027 -
James Dornelly Peterborough United Aktiv 115 / 115 40% 3 28.03.2027 -
Juan Giménez Rayo Vallecano Aktiv 109 / 131 40% 1 26.03.2027 -
Kirill Glebov CSKA Moscow Aktiv 122 / 132 40% 2 22.03.2027 -
Mateus Mané Liverpool Aktiv 142 / 140 40% 1 22.03.2027 -
Leandro Martins Benfica Aktiv 98 / 105 40% 1 17.03.2027 -
Thiago Silvero Betis Aktiv 128 / 130 40% 1 14.03.2027 -
Harrison Armstrong Hull City Aktiv 126 / 133 40% 1 12.03.2027 -
David Ozoh Derby County Aktiv 133 / 136 40% 1 12.03.2027 -
Eduardo Felicíssimo Sporting CP Aktiv 105 / 110 40% 1 07.03.2027 -
Yussif Saidu Zaragoza Aktiv 122 / 115 40% 1 04.03.2027 -
Axel Doku KV Oostende Aktiv 119 / 128 40% 1 02.03.2027 -
Tom Atcheson Crewe Alexandra Aktiv 117 / 110 40% 1 10.02.2027 -
Edwin Asamoah Berekum Chelsea Aktiv 78 / 104 40% 1 08.02.2027 -
Eliás Montiel Atlético Madrid Aktiv 134 / 126 40% 1 02.02.2027 -
Mateo Castillo Real Cartagena Aktiv 119 / 130 51% 1 14.12.2026 -
Manuel Salcedo Tigres Aktiv 118 / 106 40% 1 07.11.2026 -
Kevin Álvarez Club America Aktiv 152 / 119 40% 1 21.10.2026 -
Adrián Sánchez Belgrano Aktiv 117 / 116 40% 1 21.10.2026 -
Valentino Acuña Newell's Old Boys Aktiv 110 / 120 40% 1 06.10.2026 -
Gustavo Albarracín Alavés Aktiv 115 / 115 40% 1 17.09.2026 -
Johan Murillo Chacarita Juniors Aktiv 80 / 87 40% 1 09.09.2026 -
Francisco Cuzzani Ferro Carril Oeste Aktiv 98 / 109 40% 1 09.09.2026 -
Bianneider Tamayo Universidad de Chile Aktiv 105 / 106 40% 1 27.08.2026 -
Isaí Valladares Zamora Aktiv 96 / 111 40% 1 18.08.2026 -
Lucas Costa Huracán Aktiv 96 / 98 40% 1 04.08.2026 -